RJSH METAR and TAF | Updated Today

RJSH METAR

Hachinohe Airport

Observation time: 4:36 hr. ago

RJSH 200254Z 33006KT 9999 SCT030 BKN230 24/08 Q1011 RMK 3CU030 A2988

Need help? Read our tutorial on how to read METARs or read the parsed version below.

Hachinohe Airport (RJSH) METAR

  • Weather conditions on Fri, 20 May 2022 02:54:00 +0000 (4:36 hr. ago):
  • Present conditions: Dry
  • Clouds: Scattered at 914 meters; broken sky at 7010 meters
  • Visibility: Greater than 10 km
  • Wind: 330 degrees at 6 knots
  • Temperature: 24 celsius
  • Dew point: 8 celsius
  • Pressure: 1011 millibars
  • Remarks: 3CU030 A2988


Useful to know...

  • Codes: RJSH/HHE
  • Airport elevation: 152ft
  • Municipality:
  • Country: Japan
  • Continent: Asia